createdAt,value
2023-03-18T00:01:19.495Z,5.60
2023-03-18T00:03:48.070Z,5.60
2023-03-18T00:06:18.756Z,5.60
2023-03-18T00:08:47.707Z,5.60
2023-03-18T00:11:19.108Z,5.50
2023-03-18T00:13:46.757Z,5.60
2023-03-18T00:16:17.509Z,5.50
2023-03-18T00:18:44.753Z,5.50
2023-03-18T00:21:12.307Z,5.50
2023-03-18T00:23:39.594Z,5.40
2023-03-18T00:26:09.056Z,5.40
2023-03-18T00:28:37.521Z,5.40
2023-03-18T00:31:08.793Z,5.40
2023-03-18T00:33:38.211Z,5.40
2023-03-18T00:36:06.763Z,5.30
2023-03-18T00:38:35.656Z,5.30
2023-03-18T00:41:11.661Z,5.30
2023-03-18T00:43:52.947Z,5.30
2023-03-18T00:46:29.548Z,5.20
2023-03-18T00:49:00.453Z,5.20
2023-03-18T00:51:31.574Z,5.20
2023-03-18T00:54:02.273Z,5.10
2023-03-18T00:56:32.102Z,5.10
2023-03-18T00:59:00.232Z,5.10
2023-03-18T01:01:28.265Z,5.00
2023-03-18T01:03:55.873Z,5.00
2023-03-18T01:06:26.410Z,5.00
2023-03-18T01:08:53.869Z,5.00
2023-03-18T01:11:24.032Z,4.90
2023-03-18T01:13:51.778Z,4.90
2023-03-18T01:16:19.604Z,4.80
2023-03-18T01:18:47.466Z,4.80
2023-03-18T01:21:14.795Z,4.80
2023-03-18T01:23:42.438Z,4.80
2023-03-18T01:26:10.884Z,4.80
2023-03-18T01:28:38.256Z,4.70
2023-03-18T01:31:05.600Z,4.70
2023-03-18T01:33:33.536Z,4.70
2023-03-18T01:36:03.879Z,4.70
2023-03-18T01:38:31.704Z,4.60
2023-03-18T01:41:00.707Z,4.60
2023-03-18T01:43:31.724Z,4.60
2023-03-18T01:46:01.268Z,4.60
2023-03-18T01:48:31.026Z,4.60
2023-03-18T01:51:05.389Z,4.50
2023-03-18T01:53:42.641Z,4.50
2023-03-18T01:56:11.969Z,4.50
2023-03-18T01:58:43.276Z,4.50
2023-03-18T02:01:19.210Z,4.50
2023-03-18T02:06:13.761Z,4.50
2023-03-18T02:08:40.970Z,4.40
2023-03-18T02:11:10.283Z,4.40
2023-03-18T02:13:42.555Z,4.40
2023-03-18T02:16:21.348Z,4.40
2023-03-18T02:18:52.047Z,4.40
2023-03-18T02:21:43.952Z,4.30
2023-03-18T02:24:41.536Z,4.30
2023-03-18T02:27:18.357Z,4.30
2023-03-18T02:29:46.549Z,4.30
2023-03-18T02:32:15.397Z,4.20
2023-03-18T02:34:43.761Z,4.20
2023-03-18T02:37:11.384Z,4.20
2023-03-18T02:39:39.619Z,4.20
2023-03-18T02:42:06.961Z,4.10
2023-03-18T02:44:38.851Z,4.10
2023-03-18T02:47:13.437Z,4.10
2023-03-18T02:49:41.498Z,4.10
2023-03-18T02:52:10.005Z,4.00
2023-03-18T02:54:37.516Z,4.00
2023-03-18T02:57:04.780Z,4.00
2023-03-18T02:59:32.584Z,4.00
2023-03-18T03:02:00.061Z,3.90
2023-03-18T03:04:27.900Z,3.90
2023-03-18T03:06:56.909Z,3.90
2023-03-18T03:09:24.025Z,3.90
2023-03-18T03:11:51.637Z,3.80
2023-03-18T03:14:19.079Z,3.80
2023-03-18T03:16:47.438Z,3.80
2023-03-18T03:19:14.696Z,3.70
2023-03-18T03:21:42.496Z,3.70
2023-03-18T03:24:10.198Z,3.70
2023-03-18T03:26:37.353Z,3.70
2023-03-18T03:29:05.261Z,3.70
2023-03-18T03:31:32.997Z,3.60
2023-03-18T03:34:00.342Z,3.60
2023-03-18T03:36:27.508Z,3.60
2023-03-18T03:38:55.490Z,3.60
2023-03-18T03:41:22.633Z,3.60
2023-03-18T03:43:49.747Z,3.60
2023-03-18T03:46:16.892Z,3.60
2023-03-18T03:48:44.249Z,3.50
2023-03-18T03:51:11.472Z,3.50
2023-03-18T03:53:38.849Z,3.50
2023-03-18T03:56:09.214Z,3.50
2023-03-18T03:58:36.437Z,3.50
2023-03-18T04:01:06.584Z,3.50
2023-03-18T04:03:34.037Z,3.50
2023-03-18T04:06:01.306Z,3.50
2023-03-18T04:08:28.423Z,3.40
2023-03-18T04:10:55.650Z,3.40
2023-03-18T04:13:23.583Z,3.40
2023-03-18T04:15:50.770Z,3.30
2023-03-18T04:18:17.873Z,3.30
2023-03-18T04:20:45.067Z,3.30
2023-03-18T04:23:12.706Z,3.20
2023-03-18T04:25:40.175Z,3.20
2023-03-18T04:28:07.243Z,3.20
2023-03-18T04:30:34.559Z,3.10
2023-03-18T04:33:03.363Z,3.10
2023-03-18T04:35:30.770Z,3.10
2023-03-18T04:37:58.076Z,3.10
2023-03-18T04:40:25.292Z,3.00
2023-03-18T04:42:52.464Z,3.00
2023-03-18T04:45:20.081Z,3.00
2023-03-18T04:47:47.244Z,3.00
2023-03-18T04:50:15.278Z,2.90
2023-03-18T04:52:45.176Z,3.00
2023-03-18T04:55:14.871Z,3.00
2023-03-18T04:57:43.539Z,2.90
2023-03-18T05:00:14.945Z,2.90
2023-03-18T05:02:42.322Z,2.90
2023-03-18T05:05:10.721Z,2.90
2023-03-18T05:07:37.991Z,2.90
2023-03-18T05:10:06.963Z,2.90
2023-03-18T05:12:34.249Z,2.90
2023-03-18T05:15:01.405Z,2.90
2023-03-18T05:17:28.801Z,2.90
2023-03-18T05:19:56.421Z,2.90
2023-03-18T05:22:23.778Z,3.00
2023-03-18T05:24:51.167Z,3.00
2023-03-18T05:27:19.477Z,3.00
2023-03-18T05:29:46.704Z,3.10
2023-03-18T05:32:14.891Z,3.10
2023-03-18T05:34:42.716Z,3.10
2023-03-18T05:37:12.218Z,3.20
2023-03-18T05:39:39.381Z,3.20
2023-03-18T05:42:06.835Z,3.20
2023-03-18T05:44:34.244Z,3.30
2023-03-18T05:47:02.755Z,3.30
2023-03-18T05:49:30.150Z,3.40
2023-03-18T05:51:57.605Z,3.40
2023-03-18T05:54:25.114Z,3.50
2023-03-18T05:56:52.843Z,3.60
2023-03-18T05:59:20.688Z,3.60
2023-03-18T06:01:49.191Z,3.70
2023-03-18T06:04:17.352Z,3.80
2023-03-18T06:06:44.809Z,3.80
2023-03-18T06:09:13.278Z,4.00
2023-03-18T06:11:40.556Z,4.00
2023-03-18T06:14:08.831Z,4.10
2023-03-18T06:16:36.473Z,4.20
2023-03-18T06:19:04.666Z,4.30
2023-03-18T06:21:33.204Z,4.40
2023-03-18T06:24:01.662Z,4.50
2023-03-18T06:26:29.275Z,4.60
2023-03-18T06:28:58.486Z,4.60
2023-03-18T06:31:26.065Z,4.70
2023-03-18T06:33:53.434Z,4.80
2023-03-18T06:36:21.702Z,4.80
2023-03-18T06:38:48.813Z,4.90
2023-03-18T06:41:16.386Z,4.90
2023-03-18T06:43:43.521Z,5.00
2023-03-18T06:46:14.573Z,5.10
2023-03-18T06:48:41.798Z,5.20
2023-03-18T06:51:08.899Z,5.40
2023-03-18T06:53:37.054Z,5.50
2023-03-18T06:56:06.229Z,5.50
2023-03-18T06:58:33.719Z,5.60
2023-03-18T07:01:01.546Z,5.70
2023-03-18T07:03:28.661Z,5.80
2023-03-18T07:05:56.179Z,5.90
2023-03-18T07:08:23.636Z,6.00
2023-03-18T07:10:56.274Z,6.10
2023-03-18T07:13:24.852Z,6.10
2023-03-18T07:15:52.104Z,6.20
2023-03-18T07:18:20.422Z,6.30
2023-03-18T07:20:47.543Z,6.40
2023-03-18T07:23:14.846Z,6.50
2023-03-18T07:25:42.481Z,6.70
2023-03-18T07:28:10.085Z,6.90
2023-03-18T07:30:38.299Z,7.10
2023-03-18T07:33:06.096Z,7.20
2023-03-18T07:35:33.491Z,7.40
2023-03-18T07:38:00.717Z,7.50
2023-03-18T07:40:28.130Z,7.60
2023-03-18T07:42:55.813Z,7.80
2023-03-18T07:45:22.993Z,8.00
2023-03-18T07:47:51.734Z,8.20
2023-03-18T07:50:18.834Z,8.30
2023-03-18T07:52:45.974Z,8.40
2023-03-18T07:55:13.307Z,8.60
2023-03-18T07:57:40.819Z,8.70
2023-03-18T08:00:10.713Z,8.80
2023-03-18T08:02:38.050Z,8.80
2023-03-18T08:05:08.020Z,8.90
2023-03-18T08:07:36.064Z,9.00
2023-03-18T08:10:03.359Z,9.10
2023-03-18T08:12:45.288Z,9.20
2023-03-18T08:15:17.602Z,9.30
2023-03-18T08:17:45.981Z,9.30
2023-03-18T08:20:13.407Z,9.40
2023-03-18T08:22:40.523Z,9.50
2023-03-18T08:25:08.438Z,9.60
2023-03-18T08:27:35.562Z,9.70
2023-03-18T08:30:03.962Z,9.80
2023-03-18T08:32:31.297Z,9.90
2023-03-18T08:34:58.430Z,10.00
2023-03-18T08:37:26.027Z,10.10
2023-03-18T08:39:53.155Z,10.10
2023-03-18T08:42:20.619Z,10.20
2023-03-18T08:44:47.878Z,10.20
2023-03-18T08:47:15.031Z,10.30
2023-03-18T08:49:42.150Z,10.40
2023-03-18T08:52:10.563Z,10.50
2023-03-18T08:54:37.758Z,10.60
2023-03-18T08:57:05.192Z,10.70
2023-03-18T08:59:32.288Z,10.80
2023-03-18T09:01:59.346Z,10.90
2023-03-18T09:04:26.577Z,11.10
2023-03-18T09:06:53.713Z,11.20
2023-03-18T09:09:24.492Z,11.20
2023-03-18T09:11:55.210Z,11.30
2023-03-18T09:14:23.699Z,11.40
2023-03-18T09:16:50.849Z,11.50
2023-03-18T09:19:18.029Z,11.60
2023-03-18T09:21:45.183Z,11.70
2023-03-18T09:24:12.248Z,11.70
2023-03-18T09:26:39.717Z,11.70
2023-03-18T09:29:06.794Z,11.70
2023-03-18T09:31:33.911Z,11.80
2023-03-18T09:34:00.996Z,11.90
2023-03-18T09:36:28.605Z,11.90
2023-03-18T09:38:56.069Z,12.00
2023-03-18T09:41:39.183Z,12.00
2023-03-18T09:44:39.840Z,12.00
2023-03-18T09:47:19.022Z,12.00
2023-03-18T09:49:46.317Z,12.00
2023-03-18T09:52:41.119Z,12.10
2023-03-18T09:55:23.977Z,12.10
2023-03-18T09:57:55.736Z,12.20
2023-03-18T10:00:26.111Z,12.20
2023-03-18T10:03:06.679Z,12.20
2023-03-18T10:05:54.132Z,12.30
2023-03-18T10:08:24.829Z,12.30
2023-03-18T10:10:52.057Z,12.30
2023-03-18T10:13:38.612Z,12.40
2023-03-18T10:16:13.843Z,12.50
2023-03-18T10:18:43.424Z,12.50
2023-03-18T10:21:25.923Z,12.60
2023-03-18T10:24:05.255Z,12.60
2023-03-18T10:26:42.247Z,12.60
2023-03-18T10:29:31.072Z,12.70
2023-03-18T10:32:12.529Z,12.80
2023-03-18T10:34:46.205Z,12.80
2023-03-18T10:37:52.142Z,12.90
2023-03-18T10:40:21.181Z,13.00
2023-03-18T10:42:50.007Z,13.00
2023-03-18T10:45:23.661Z,13.10
2023-03-18T10:47:57.527Z,13.00
2023-03-18T10:50:35.703Z,13.10
2023-03-18T10:53:13.334Z,13.00
2023-03-18T10:55:51.264Z,13.00
2023-03-18T10:58:20.059Z,13.10
2023-03-18T11:00:47.168Z,13.10
2023-03-18T11:03:24.323Z,13.10
2023-03-18T11:05:52.811Z,13.20
2023-03-18T11:08:39.689Z,13.30
2023-03-18T11:11:21.799Z,13.30
2023-03-18T11:13:57.342Z,13.30
2023-03-18T11:16:47.182Z,13.30
2023-03-18T11:19:40.156Z,13.40
2023-03-18T11:22:10.337Z,13.50
2023-03-18T11:24:39.800Z,13.60
2023-03-18T11:27:29.836Z,13.70
2023-03-18T11:30:00.408Z,13.80
2023-03-18T11:32:37.213Z,13.80
2023-03-18T11:35:07.277Z,13.70
2023-03-18T11:37:53.143Z,13.70
2023-03-18T11:40:40.276Z,13.70
2023-03-18T11:43:20.917Z,13.60
2023-03-18T11:45:56.305Z,13.60
2023-03-18T11:48:35.766Z,13.60
2023-03-18T11:51:10.898Z,13.70
2023-03-18T11:53:53.462Z,13.80
2023-03-18T11:56:40.530Z,14.00
2023-03-18T11:59:45.076Z,14.00
2023-03-18T12:02:21.088Z,14.10
2023-03-18T12:05:05.619Z,14.20
2023-03-18T12:08:12.018Z,14.20
2023-03-18T12:11:08.529Z,14.20
2023-03-18T12:13:48.417Z,14.30
2023-03-18T12:16:32.806Z,14.40
2023-03-18T12:19:09.614Z,14.40
2023-03-18T12:22:01.883Z,14.50
2023-03-18T12:24:52.568Z,14.40
2023-03-18T12:27:58.600Z,14.40
2023-03-18T12:31:05.848Z,14.50
2023-03-18T12:33:58.456Z,14.50
2023-03-18T12:36:32.425Z,14.50
2023-03-18T12:39:37.056Z,14.50
2023-03-18T12:42:25.318Z,14.60
2023-03-18T12:45:07.381Z,14.60
2023-03-18T12:47:49.274Z,14.60
2023-03-18T12:50:22.293Z,14.60
2023-03-18T12:53:17.311Z,14.60
2023-03-18T12:55:48.093Z,14.60
2023-03-18T12:58:29.112Z,14.60
2023-03-18T13:01:18.549Z,14.60
2023-03-18T13:04:01.561Z,14.70
2023-03-18T13:06:44.567Z,14.70
2023-03-18T13:09:33.412Z,14.70
2023-03-18T13:12:07.464Z,14.80
2023-03-18T13:15:08.526Z,14.80
2023-03-18T13:17:40.040Z,14.80
2023-03-18T13:20:33.320Z,14.80
2023-03-18T13:23:13.994Z,14.80
2023-03-18T13:26:02.181Z,14.80
2023-03-18T13:28:38.783Z,14.80
2023-03-18T13:31:30.229Z,14.90
2023-03-18T13:34:00.203Z,14.90
2023-03-18T13:36:54.610Z,14.90
2023-03-18T13:39:44.423Z,14.90
2023-03-18T13:42:23.597Z,15.00
2023-03-18T13:44:56.631Z,15.00
2023-03-18T13:47:28.095Z,15.00
2023-03-18T13:50:04.492Z,15.00
2023-03-18T13:52:54.098Z,15.00
2023-03-18T13:55:30.645Z,15.00
2023-03-18T13:58:11.732Z,15.00
2023-03-18T14:00:40.586Z,14.90
2023-03-18T14:03:26.936Z,14.90
2023-03-18T14:06:38.698Z,14.90
2023-03-18T14:09:32.598Z,14.90
2023-03-18T14:12:38.374Z,14.90
2023-03-18T14:15:25.492Z,14.90
2023-03-18T14:17:58.488Z,14.90
2023-03-18T14:20:43.090Z,14.90
2023-03-18T14:23:37.308Z,14.90
2023-03-18T14:26:19.818Z,14.90
2023-03-18T14:29:16.893Z,14.80
2023-03-18T14:32:08.381Z,14.80
2023-03-18T14:34:57.834Z,14.80
2023-03-18T14:37:30.860Z,14.80
2023-03-18T14:40:07.207Z,14.80
2023-03-18T14:42:43.987Z,14.80
2023-03-18T14:45:18.948Z,14.80
2023-03-18T14:47:52.677Z,14.80
2023-03-18T14:50:40.229Z,14.80
2023-03-18T14:53:13.795Z,14.70
2023-03-18T14:55:41.594Z,14.70
2023-03-18T14:58:20.379Z,14.70
2023-03-18T15:00:51.822Z,14.70
2023-03-18T15:03:25.657Z,14.60
2023-03-18T15:05:58.778Z,14.60
2023-03-18T15:08:44.647Z,14.60
2023-03-18T15:11:16.539Z,14.50
2023-03-18T15:13:44.943Z,14.50
2023-03-18T15:16:17.364Z,14.50
2023-03-18T15:18:47.957Z,14.40
2023-03-18T15:21:23.362Z,14.40
2023-03-18T15:23:53.612Z,14.40
2023-03-18T15:26:33.951Z,14.30
2023-03-18T15:29:17.972Z,14.30
2023-03-18T15:31:45.270Z,14.30
2023-03-18T15:34:23.079Z,14.20
2023-03-18T15:36:59.407Z,14.20
2023-03-18T15:39:40.184Z,14.20
2023-03-18T15:42:21.025Z,14.10
2023-03-18T15:45:00.667Z,14.10
2023-03-18T15:47:32.256Z,14.00
2023-03-18T15:50:09.619Z,14.00
2023-03-18T15:52:43.040Z,14.00
2023-03-18T15:55:30.821Z,13.90
2023-03-18T15:57:58.750Z,13.90
2023-03-18T16:00:26.325Z,13.80
2023-03-18T16:02:54.651Z,13.70
2023-03-18T16:05:30.550Z,13.70
2023-03-18T16:07:59.780Z,13.60
2023-03-18T16:10:26.933Z,13.60
2023-03-18T16:12:58.014Z,13.50
2023-03-18T16:15:26.374Z,13.50
2023-03-18T16:17:56.951Z,13.50
2023-03-18T16:20:27.618Z,13.40
2023-03-18T16:23:04.289Z,13.40
2023-03-18T16:25:31.743Z,13.30
2023-03-18T16:28:00.213Z,13.30
2023-03-18T16:30:29.970Z,13.30
2023-03-18T16:32:59.487Z,13.20
2023-03-18T16:35:34.446Z,13.20
2023-03-18T16:38:02.387Z,13.10
2023-03-18T16:40:31.740Z,13.10
2023-03-18T16:42:59.212Z,13.00
2023-03-18T16:45:31.051Z,13.00
2023-03-18T16:48:02.113Z,12.90
2023-03-18T16:50:39.214Z,12.90
2023-03-18T16:53:30.528Z,12.80
2023-03-18T16:56:00.261Z,12.70
2023-03-18T16:58:33.220Z,12.70
2023-03-18T17:01:00.463Z,12.60
2023-03-18T17:03:29.394Z,12.60
2023-03-18T17:05:59.784Z,12.50
2023-03-18T17:08:26.939Z,12.50
2023-03-18T17:11:02.612Z,12.40
2023-03-18T17:13:35.188Z,12.40
2023-03-18T17:16:02.689Z,12.30
2023-03-18T17:18:30.286Z,12.30
2023-03-18T17:20:57.589Z,12.20
2023-03-18T17:23:30.084Z,12.20
2023-03-18T17:26:02.922Z,12.20
2023-03-18T17:28:50.716Z,12.10
2023-03-18T17:31:20.208Z,12.10
2023-03-18T17:33:47.498Z,12.10
2023-03-18T17:36:14.556Z,12.10
2023-03-18T17:38:41.761Z,12.00
2023-03-18T17:41:17.978Z,12.00
2023-03-18T17:43:45.125Z,12.00
2023-03-18T17:46:12.362Z,11.90
2023-03-18T17:48:41.067Z,11.90
2023-03-18T17:51:15.819Z,11.90
2023-03-18T17:53:46.157Z,11.80
2023-03-18T17:56:17.290Z,11.80
2023-03-18T17:58:47.178Z,11.80
2023-03-18T18:01:22.468Z,11.70
2023-03-18T18:03:49.901Z,11.70
2023-03-18T18:06:32.095Z,11.70
2023-03-18T18:09:00.974Z,11.60
2023-03-18T18:11:29.423Z,11.60
2023-03-18T18:14:15.233Z,11.50
2023-03-18T18:16:43.652Z,11.50
2023-03-18T18:19:11.607Z,11.50
2023-03-18T18:21:38.722Z,11.40
2023-03-18T18:24:15.006Z,11.40
2023-03-18T18:26:42.109Z,11.30
2023-03-18T18:29:15.543Z,11.30
2023-03-18T18:31:43.446Z,11.30
2023-03-18T18:34:11.192Z,11.20
2023-03-18T18:36:38.379Z,11.20
2023-03-18T18:39:05.850Z,11.20
2023-03-18T18:41:33.685Z,11.20
2023-03-18T18:44:01.105Z,11.10
2023-03-18T18:46:29.085Z,11.00
2023-03-18T18:48:56.657Z,11.00
2023-03-18T18:51:25.460Z,10.90
2023-03-18T18:53:54.184Z,10.90
2023-03-18T18:56:29.100Z,10.90
2023-03-18T18:58:58.244Z,10.80
2023-03-18T19:01:25.372Z,10.80
2023-03-18T19:03:52.682Z,10.80
2023-03-18T19:06:31.298Z,10.70
2023-03-18T19:09:00.831Z,10.70
2023-03-18T19:11:28.978Z,10.70
2023-03-18T19:14:28.912Z,10.60
2023-03-18T19:16:59.240Z,10.60
2023-03-18T19:19:29.790Z,10.50
2023-03-18T19:21:57.939Z,10.50
2023-03-18T19:24:45.556Z,10.50
2023-03-18T19:27:28.844Z,10.40
2023-03-18T19:29:58.641Z,10.40
2023-03-18T19:32:26.414Z,10.30
2023-03-18T19:34:56.135Z,10.20
2023-03-18T19:37:32.376Z,10.20
2023-03-18T19:40:01.808Z,10.10
2023-03-18T19:42:29.707Z,10.10
2023-03-18T19:44:57.303Z,10.00
2023-03-18T19:47:29.333Z,10.00
2023-03-18T19:49:56.436Z,9.90
2023-03-18T19:52:27.940Z,9.90
2023-03-18T19:54:55.480Z,9.80
2023-03-18T19:57:29.400Z,9.80
2023-03-18T19:59:58.398Z,9.70
2023-03-18T20:02:26.996Z,9.70
2023-03-18T20:05:00.214Z,9.60
2023-03-18T20:07:30.557Z,9.60
2023-03-18T20:09:57.662Z,9.60
2023-03-18T20:12:32.793Z,9.50
2023-03-18T20:14:59.917Z,9.50
2023-03-18T20:17:28.819Z,9.50
2023-03-18T20:19:56.591Z,9.40
2023-03-18T20:22:31.645Z,9.40
2023-03-18T20:24:59.127Z,9.40
2023-03-18T20:27:28.339Z,9.30
2023-03-18T20:29:55.423Z,9.30
2023-03-18T20:32:22.488Z,9.30
2023-03-18T20:34:51.271Z,9.20
2023-03-18T20:37:28.602Z,9.20
2023-03-18T20:39:55.873Z,9.20
2023-03-18T20:42:23.151Z,9.10
2023-03-18T20:44:50.271Z,9.10
2023-03-18T20:47:17.593Z,9.10
2023-03-18T20:49:45.704Z,9.10
2023-03-18T20:52:26.011Z,9.10
2023-03-18T20:54:53.310Z,9.00
2023-03-18T20:57:20.562Z,9.00
2023-03-18T20:59:47.781Z,9.00
2023-03-18T21:02:28.895Z,9.00
2023-03-18T21:04:57.845Z,8.90
2023-03-18T21:07:26.204Z,8.90
2023-03-18T21:09:53.361Z,8.90
2023-03-18T21:12:22.028Z,8.80
2023-03-18T21:14:49.897Z,8.80
2023-03-18T21:17:22.329Z,8.80
2023-03-18T21:19:50.347Z,8.80
2023-03-18T21:22:21.768Z,8.70
2023-03-18T21:24:51.089Z,8.70
2023-03-18T21:27:21.174Z,8.70
2023-03-18T21:29:52.185Z,8.60
2023-03-18T21:32:24.678Z,8.60
2023-03-18T21:34:55.130Z,8.60
2023-03-18T21:37:25.518Z,8.60
2023-03-18T21:39:53.236Z,8.60
2023-03-18T21:42:26.190Z,8.50
2023-03-18T21:44:54.080Z,8.50
2023-03-18T21:47:23.007Z,8.40
2023-03-18T21:49:50.717Z,8.40
2023-03-18T21:52:45.484Z,8.40
2023-03-18T21:55:12.988Z,8.30
2023-03-18T21:57:40.355Z,8.30
2023-03-18T22:00:08.616Z,8.30
2023-03-18T22:02:37.746Z,8.30
2023-03-18T22:05:11.647Z,8.20
2023-03-18T22:07:38.841Z,8.20
2023-03-18T22:10:07.184Z,8.20
2023-03-18T22:12:35.659Z,8.20
2023-03-18T22:15:02.846Z,8.20
2023-03-18T22:17:32.267Z,8.10
2023-03-18T22:20:02.043Z,8.10
2023-03-18T22:22:37.411Z,8.10
2023-03-18T22:25:05.289Z,8.00
2023-03-18T22:27:32.991Z,8.00
2023-03-18T22:30:01.025Z,8.00
2023-03-18T22:32:48.747Z,7.90
2023-03-18T22:35:19.526Z,8.00
2023-03-18T22:37:47.712Z,7.90
2023-03-18T22:40:30.327Z,7.90
2023-03-18T22:42:59.767Z,7.90
2023-03-18T22:45:32.668Z,7.90
2023-03-18T22:48:03.231Z,7.80
2023-03-18T22:50:32.397Z,7.80
2023-03-18T22:53:02.568Z,7.80
2023-03-18T22:55:37.406Z,7.80
2023-03-18T22:58:05.149Z,7.80
2023-03-18T23:00:40.947Z,7.70
2023-03-18T23:03:14.731Z,7.70
2023-03-18T23:05:41.872Z,7.70
2023-03-18T23:08:09.108Z,7.70
2023-03-18T23:10:36.668Z,7.60
2023-03-18T23:13:18.238Z,7.60
2023-03-18T23:15:45.664Z,7.60
2023-03-18T23:18:17.100Z,7.60
2023-03-18T23:20:46.312Z,7.60
2023-03-18T23:23:14.457Z,7.50
2023-03-18T23:25:43.087Z,7.50
2023-03-18T23:28:10.657Z,7.50
2023-03-18T23:30:42.238Z,7.50
2023-03-18T23:33:10.176Z,7.50
2023-03-18T23:35:38.194Z,7.50
2023-03-18T23:38:06.604Z,7.40
2023-03-18T23:40:34.263Z,7.50
2023-03-18T23:43:01.792Z,7.40
2023-03-18T23:45:31.077Z,7.40
2023-03-18T23:47:58.357Z,7.40
2023-03-18T23:50:25.489Z,7.30
2023-03-18T23:52:52.634Z,7.30
2023-03-18T23:55:33.581Z,7.30
2023-03-18T23:58:01.638Z,7.30
